Time;durP1;ratioP1;P1;durP2;ratioP2;P2;SDS_P1;SDS_P2;PMS_P1;PMS_P2;Temp;Humidity;BMP_temperature;BMP_pressure;BME280_temperature;BME280_humidity;BME280_pressure;Samples;Min_cycle;Max_cycle;Signal;HPM_P1;HPM_P2
2022/07/30 00:02:25;;;;;;;6.00;3.62;;;;;;;24.30;49.18;99497.84;7606845;32;39466;-75
2022/07/30 00:06:41;;;;;;;9.38;3.80;;;;;;;24.35;49.15;99498.34;7593695;32;40764;-74
2022/07/30 00:10:58;;;;;;;5.65;3.83;;;;;;;24.21;49.67;99498.09;7606862;32;37936;-74
2022/07/30 00:15:15;;;;;;;6.50;4.30;;;;;;;24.28;49.42;99483.47;7607507;32;37211;-76
2022/07/30 00:19:31;;;;;;;5.32;3.47;;;;;;;24.21;49.81;99478.59;7606289;32;40198;-74
2022/07/30 00:23:48;;;;;;;5.10;3.55;;;;;;;24.19;49.85;99483.72;7606697;32;40118;-75
2022/07/30 00:28:16;;;;;;;5.25;3.20;;;;;;;24.18;49.90;99502.44;7606496;32;37955;-74
2022/07/30 00:32:32;;;;;;;4.75;3.28;;;;;;;24.24;49.72;99511.28;7606724;32;37998;-74
2022/07/30 00:36:49;;;;;;;6.75;3.83;;;;;;;24.22;49.93;99508.06;7606628;32;39313;-74
2022/07/30 00:41:05;;;;;;;7.30;3.78;;;;;;;24.08;50.67;99514.19;7606629;32;40727;-75
2022/07/30 00:45:21;;;;;;;6.07;3.87;;;;;;;24.20;50.30;99521.56;7606431;32;37814;-74
2022/07/30 00:49:37;;;;;;;8.02;3.70;;;;;;;24.26;50.07;99547.91;7606569;32;37241;-75
2022/07/30 00:53:58;;;;;;;5.82;3.50;;;;;;;24.31;50.09;99561.53;7607005;32;40231;-75
2022/07/30 00:58:14;;;;;;;7.95;4.25;;;;;;;24.29;50.34;99586.16;7606398;32;39976;-71
2022/07/30 01:02:31;;;;;;;6.07;3.78;;;;;;;24.30;51.04;99590.56;7607049;32;37889;-71
2022/07/30 01:06:47;;;;;;;5.55;3.70;;;;;;;24.14;51.28;99592.66;7606457;32;37009;-75
2022/07/30 01:11:03;;;;;;;8.98;4.18;;;;;;;24.30;50.66;99612.84;7606280;32;39434;-73
2022/07/30 01:15:20;;;;;;;9.57;4.55;;;;;;;24.30;55.11;99604.50;7592804;32;39974;-72
2022/07/30 01:19:47;;;;;;;12.18;5.03;;;;;;;24.08;57.08;99586.56;7606212;32;37696;-74
2022/07/30 01:24:32;;;;;;;10.60;5.28;;;;;;;24.27;56.21;99535.59;7594011;32;37918;-79
2022/07/30 01:28:50;;;;;;;9.85;4.90;;;;;;;23.87;57.78;99506.25;7600887;32;39272;-77
2022/07/30 01:33:09;;;;;;;14.73;5.55;;;;;;;23.77;58.35;99487.31;7604832;32;39143;-80
2022/07/30 01:37:26;;;;;;;10.27;4.87;;;;;;;23.90;58.10;99476.84;7592969;32;38013;-79
2022/07/30 01:41:43;;;;;;;10.32;4.80;;;;;;;23.98;57.42;99459.91;7592823;32;37182;-83
2022/07/30 01:46:00;;;;;;;8.70;4.87;;;;;;;23.99;57.24;99455.13;7592653;32;39419;-73
2022/07/30 01:50:18;;;;;;;9.80;5.20;;;;;;;23.49;59.26;99460.56;7597724;32;39735;-73
2022/07/30 01:54:36;;;;;;;9.02;5.37;;;;;;;23.42;59.40;99457.59;7618603;32;37603;-73
2022/07/30 01:58:54;;;;;;;11.77;5.80;;;;;;;23.45;59.83;99456.88;7618602;32;37699;-74
2022/07/30 02:03:11;;;;;;;9.85;5.50;;;;;;;23.23;61.16;99456.47;7618473;32;39847;-73
2022/07/30 02:07:35;;;;;;;8.57;5.60;;;;;;;23.25;61.67;99473.56;7631586;32;40893;-73
2022/07/30 02:16:46;;;;;;;10.32;5.82;;;;;;;23.06;63.04;99498.59;7650930;27;20103;-73
2022/07/30 02:21:05;;;;;;;11.18;6.37;;;;;;;23.18;62.85;99498.44;7618430;32;39908;-73
2022/07/30 02:25:32;;;;;;;9.60;5.70;;;;;;;23.20;63.12;99493.31;7618648;32;40754;-73
2022/07/30 02:29:49;;;;;;;7.53;5.67;;;;;;;23.21;62.87;99469.91;7618208;32;37721;-79
2022/07/30 02:34:07;;;;;;;8.50;5.55;;;;;;;22.93;62.89;99452.59;7631166;32;37967;-79
2022/07/30 02:38:26;;;;;;;8.30;5.68;;;;;;;23.20;62.01;99436.91;7630398;32;39432;-79
2022/07/30 02:42:45;;;;;;;10.10;5.78;;;;;;;22.85;62.58;99434.94;7618029;32;40510;-78
2022/07/30 02:47:02;;;;;;;9.05;5.32;;;;;;;22.77;62.96;99424.84;7620524;32;38738;-72
2022/07/30 02:51:20;;;;;;;9.93;5.40;;;;;;;22.75;63.16;99405.75;7633742;32;37048;-72
2022/07/30 02:55:39;;;;;;;7.18;4.75;;;;;;;22.33;64.09;99394.47;7633662;32;39394;-74
2022/07/30 02:59:56;;;;;;;10.45;4.97;;;;;;;22.60;62.72;99382.41;7620760;32;40892;-73
2022/07/30 03:04:15;;;;;;;8.00;4.70;;;;;;;22.29;63.38;99377.72;7633689;32;36865;-73
2022/07/30 03:08:31;;;;;;;6.37;4.15;;;;;;;22.41;62.86;99377.59;7617240;32;37260;-72
2022/07/30 03:12:48;;;;;;;7.47;3.83;;;;;;;22.59;62.61;99391.09;7616479;32;40051;-73
2022/07/30 03:17:05;;;;;;;7.57;4.60;;;;;;;22.61;62.44;99405.41;7616858;32;39661;-72
2022/07/30 03:21:24;;;;;;;7.35;4.43;;;;;;;22.39;63.20;99401.38;7617455;32;38734;-73
2022/07/30 03:25:43;;;;;;;9.68;5.12;;;;;;;22.26;63.76;99397.84;7633661;32;37809;-72
2022/07/30 03:30:01;;;;;;;7.20;4.32;;;;;;;22.28;64.32;99384.44;7633375;32;40116;-73
2022/07/30 03:34:19;;;;;;;8.40;4.43;;;;;;;22.15;63.16;99372.62;7620140;32;40030;-73
2022/07/30 03:38:36;;;;;;;7.05;4.70;;;;;;;22.21;62.35;99387.00;7607908;32;37845;-73
2022/07/30 03:42:52;;;;;;;5.70;4.22;;;;;;;22.05;62.95;99390.59;7633345;32;37928;-73
2022/07/30 03:47:09;;;;;;;11.20;4.97;;;;;;;22.19;63.65;99408.78;7633385;32;39281;-73
2022/07/30 03:51:26;;;;;;;6.53;4.65;;;;;;;22.22;64.66;99435.84;7619926;32;39915;-73
2022/07/30 03:55:48;;;;;;;7.45;4.75;;;;;;;22.28;64.32;99471.34;7619522;32;37897;-73
2022/07/30 04:00:12;;;;;;;8.13;4.30;;;;;;;22.22;63.83;99506.03;7632756;32;38407;-73
2022/07/30 04:04:29;;;;;;;18.15;6.40;;;;;;;22.41;60.98;99524.00;7633383;32;39330;-72
2022/07/30 04:08:45;;;;;;;20.67;6.37;;;;;;;22.73;63.14;99458.09;7633131;32;41121;-73
2022/07/30 04:13:01;;;;;;;11.57;4.87;;;;;;;22.12;64.79;99401.88;7632837;32;38589;-73
2022/07/30 04:17:46;;;;;;;9.23;5.25;;;;;;;21.91;65.34;99368.06;7632973;32;36929;-73
2022/07/30 04:22:03;;;;;;;9.13;5.15;;;;;;;21.80;65.91;99366.97;7632899;32;39560;-72
2022/07/30 04:26:20;;;;;;;7.87;4.95;;;;;;;21.19;68.15;99371.69;7619484;32;40933;-72
2022/07/30 04:30:36;;;;;;;10.77;5.82;;;;;;;21.50;66.87;99395.12;7619017;32;38495;-72
2022/07/30 04:34:54;;;;;;;12.73;5.65;;;;;;;21.57;66.87;99406.41;7632781;32;37045;-72
2022/07/30 04:39:11;;;;;;;9.20;5.82;;;;;;;21.76;67.06;99405.72;7632758;32;39826;-72
2022/07/30 04:43:27;;;;;;;10.50;6.12;;;;;;;22.01;66.32;99395.28;7632488;32;39918;-72
2022/07/30 04:47:43;;;;;;;18.95;6.10;;;;;;;21.78;66.91;99391.50;7632541;32;38050;-72
2022/07/30 04:52:01;;;;;;;10.27;5.03;;;;;;;21.78;67.42;99422.81;7632786;32;37091;-72
2022/07/30 04:56:19;;;;;;;11.70;5.50;;;;;;;21.71;66.43;99430.94;7618926;32;40108;-72
2022/07/30 05:00:37;;;;;;;10.85;5.47;;;;;;;21.98;66.89;99425.72;7619251;32;40892;-71
2022/07/30 05:04:57;;;;;;;11.30;5.68;;;;;;;22.07;67.38;99446.56;7619475;32;37809;-72
2022/07/30 05:09:15;;;;;;;8.85;5.37;;;;;;;22.16;66.79;99431.69;7631994;32;38545;-71
2022/07/30 05:13:31;;;;;;;15.15;5.68;;;;;;;22.03;67.80;99442.09;7632016;32;40020;-72
2022/07/30 05:17:50;;;;;;;7.80;5.22;;;;;;;22.23;67.21;99460.47;7632192;32;39053;-72
2022/07/30 05:22:06;;;;;;;9.63;6.05;;;;;;;22.26;67.12;99456.94;7632398;32;38717;-72
2022/07/30 05:26:22;;;;;;;10.68;6.28;;;;;;;22.46;66.71;99449.53;7631866;32;37065;-72
2022/07/30 05:30:42;;;;;;;9.75;6.03;;;;;;;22.39;66.86;99454.94;7632288;32;39023;-76
2022/07/30 05:34:59;;;;;;;9.20;5.47;;;;;;;22.64;66.07;99465.81;7632158;32;40211;-79
2022/07/30 05:39:15;;;;;;;10.52;5.60;;;;;;;22.80;65.53;99469.38;7631955;32;37933;-80
2022/07/30 05:43:31;;;;;;;12.85;5.12;;;;;;;22.99;64.79;99471.41;7631128;32;37094;-80
2022/07/30 05:47:48;;;;;;;13.27;5.87;;;;;;;23.13;64.18;99470.09;7631729;32;39322;-78
2022/07/30 05:52:04;;;;;;;11.15;5.90;;;;;;;23.16;64.40;99489.69;7631773;32;39927;-80
2022/07/30 05:56:21;;;;;;;8.38;5.70;;;;;;;23.21;64.50;99489.34;7631927;32;38007;-79
2022/07/30 06:00:36;;;;;;;12.20;5.20;;;;;;;23.44;63.86;99488.66;7631701;32;37746;-79
2022/07/30 06:04:52;;;;;;;10.73;5.05;;;;;;;23.56;63.66;99491.28;7631780;32;39265;-77
2022/07/30 06:09:09;;;;;;;8.52;4.93;;;;;;;23.68;63.16;99490.34;7628517;32;39933;-76
2022/07/30 06:13:25;;;;;;;8.07;5.03;;;;;;;23.63;63.80;99487.84;7627813;32;38449;-79
2022/07/30 06:17:45;;;;;;;9.55;5.07;;;;;;;23.93;62.58;99478.91;7626838;32;37833;-80
2022/07/30 06:22:12;;;;;;;8.95;4.95;;;;;;;24.19;62.96;99478.16;7629327;32;39277;-80
2022/07/30 06:26:29;;;;;;;8.13;4.72;;;;;;;24.36;62.60;99480.44;7631248;32;40713;-80
2022/07/30 06:30:46;;;;;;;8.65;4.43;;;;;;;24.50;61.06;99495.78;7630994;32;39450;-78
2022/07/30 06:35:03;;;;;;;8.13;4.93;;;;;;;24.50;61.56;99495.78;7631079;32;38156;-80
2022/07/30 06:39:20;;;;;;;17.75;5.05;;;;;;;24.25;61.61;99500.94;7630846;32;39304;-80
2022/07/30 06:43:56;;;;;;;7.68;5.35;;;;;;;23.87;62.74;99495.09;7630468;32;40158;-76
2022/07/30 06:48:12;;;;;;;8.82;5.12;;;;;;;24.46;62.66;99492.16;7630924;32;37705;-78
2022/07/30 06:52:28;;;;;;;9.05;5.07;;;;;;;24.70;62.65;99485.41;7629882;32;37718;-81
2022/07/30 06:56:44;;;;;;;8.75;5.15;;;;;;;24.62;61.00;99478.91;7627901;32;39184;-79
2022/07/30 07:01:00;;;;;;;8.95;5.82;;;;;;;24.42;61.79;99483.72;7630501;32;40709;-79
2022/07/30 07:05:16;;;;;;;9.57;5.50;;;;;;;24.83;60.85;99497.91;7630350;32;37732;-77
2022/07/30 07:09:32;;;;;;;11.27;6.07;;;;;;;25.13;60.94;99483.22;7630233;32;37041;-79
2022/07/30 07:13:53;;;;;;;9.07;6.07;;;;;;;25.20;61.54;99488.06;7629528;32;38115;-78
2022/07/30 07:18:11;;;;;;;9.73;5.60;;;;;;;25.38;59.32;99477.19;7629754;32;39992;-76
2022/07/30 07:22:27;;;;;;;8.93;5.87;;;;;;;25.13;58.76;99472.06;7629684;32;37950;-79
2022/07/30 07:26:43;;;;;;;11.52;5.80;;;;;;;25.06;60.24;99483.94;7629692;32;37116;-79
2022/07/30 07:30:59;;;;;;;8.55;6.22;;;;;;;24.52;60.25;99476.72;7631711;32;38726;-77
2022/07/30 07:35:15;;;;;;;11.90;6.40;;;;;;;24.13;62.23;99485.22;7632270;32;40019;-74
2022/07/30 07:39:31;;;;;;;10.75;6.53;;;;;;;24.59;62.44;99476.84;7633165;32;38039;-73
2022/07/30 07:43:47;;;;;;;10.65;6.12;;;;;;;25.04;59.27;99458.41;7633364;32;37373;-73
2022/07/30 07:48:04;;;;;;;15.05;6.18;;;;;;;25.37;57.67;99454.06;7633192;32;40116;-73
2022/07/30 07:52:20;;;;;;;10.40;6.18;;;;;;;24.77;59.35;99454.00;7633275;32;39874;-72
2022/07/30 07:56:36;;;;;;;8.98;5.65;;;;;;;24.78;58.94;99455.62;7631815;32;37907;-72
2022/07/30 08:00:52;;;;;;;10.52;6.28;;;;;;;24.79;58.08;99451.69;7629458;32;37249;-75
2022/07/30 08:05:11;;;;;;;9.65;6.40;;;;;;;24.54;60.67;99463.25;7629552;32;39384;-73
2022/07/30 08:09:27;;;;;;;10.68;6.05;;;;;;;24.12;62.82;99486.41;7629487;32;38995;-71
2022/07/30 08:13:59;;;;;;;8.20;5.30;;;;;;;23.78;62.69;99509.22;7631708;32;36615;-72
2022/07/30 08:18:15;;;;;;;9.55;6.05;;;;;;;23.81;60.72;99491.00;7632284;32;37705;-72
2022/07/30 08:22:31;;;;;;;8.82;5.50;;;;;;;24.18;60.98;99490.47;7632940;32;40121;-71
2022/07/30 08:26:47;;;;;;;13.07;5.95;;;;;;;23.92;60.72;99492.03;7632624;32;40162;-71
2022/07/30 08:31:04;;;;;;;10.50;5.78;;;;;;;24.41;61.74;99487.69;7632440;32;38703;-71
2022/07/30 08:35:20;;;;;;;11.38;6.03;;;;;;;24.74;62.13;99484.25;7631885;32;35894;-77
2022/07/30 08:39:36;;;;;;;7.57;5.22;;;;;;;24.89;61.92;99498.44;7632409;32;40239;-76
2022/07/30 08:43:53;;;;;;;8.50;5.90;;;;;;;24.97;58.98;99500.13;7631931;32;40716;-77
2022/07/30 08:48:13;;;;;;;10.65;5.85;;;;;;;24.87;60.46;99512.75;7632095;32;38685;-76
2022/07/30 08:52:34;;;;;;;8.80;5.72;;;;;;;24.70;59.13;99516.06;7632630;32;37242;-76
2022/07/30 08:56:50;;;;;;;9.38;6.00;;;;;;;25.05;59.57;99513.00;7631983;32;39384;-74
2022/07/30 09:01:06;;;;;;;8.40;5.70;;;;;;;25.26;60.20;99514.50;7631997;32;40601;-75
2022/07/30 09:05:23;;;;;;;9.30;6.25;;;;;;;25.30;59.29;99504.19;7631891;32;37925;-76
2022/07/30 09:09:39;;;;;;;9.95;6.53;;;;;;;25.54;60.52;99496.50;7632317;32;37144;-76
2022/07/30 09:14:06;;;;;;;9.07;6.18;;;;;;;25.59;61.38;99493.38;7632357;32;39439;-77
2022/07/30 09:18:43;;;;;;;8.95;5.68;;;;;;;25.28;60.31;99496.22;7632113;32;40046;-78
2022/07/30 09:23:01;;;;;;;10.70;7.43;;;;;;;25.41;60.12;99501.56;7630777;32;38726;-80
2022/07/30 09:27:17;;;;;;;11.77;7.55;;;;;;;24.07;62.02;99512.56;7618008;32;36376;-73
2022/07/30 09:31:51;;;;;;;10.88;7.40;;;;;;;23.69;63.70;99516.19;7632099;32;39393;-75
2022/07/30 09:36:11;;;;;;;13.10;7.72;;;;;;;23.44;64.46;99519.25;7619998;32;39852;-73
2022/07/30 09:40:31;;;;;;;11.23;7.12;;;;;;;23.41;64.86;99529.13;7631882;32;37916;-73
2022/07/30 09:44:47;;;;;;;11.32;7.03;;;;;;;22.31;68.58;99526.13;7632019;32;37099;-72
2022/07/30 09:49:24;;;;;;;14.48;6.28;;;;;;;22.24;68.80;99530.66;7631978;32;39425;-73
2022/07/30 09:54:00;;;;;;;12.55;6.80;;;;;;;22.31;67.64;99531.69;7630810;32;40693;-74
2022/07/30 09:58:16;;;;;;;11.98;6.37;;;;;;;22.44;67.05;99534.41;7631794;32;37719;-72
2022/07/30 10:02:53;;;;;;;9.85;6.87;;;;;;;22.59;67.25;99536.34;7631619;32;38519;-72
2022/07/30 10:07:20;;;;;;;19.83;7.32;;;;;;;22.00;69.83;99537.97;7630293;32;39353;-72
2022/07/30 10:11:40;;;;;;;10.75;7.40;;;;;;;22.02;69.83;99530.09;7630978;32;39757;-72
2022/07/30 10:15:56;;;;;;;12.88;7.70;;;;;;;21.79;71.66;99527.09;7631442;32;36244;-79
2022/07/30 10:20:13;;;;;;;11.23;8.18;;;;;;;21.89;70.88;99532.12;7631167;32;37985;-77
2022/07/30 10:24:30;;;;;;;12.77;8.00;;;;;;;22.06;70.66;99536.56;7617749;32;39410;-74
2022/07/30 10:28:48;;;;;;;13.18;7.85;;;;;;;22.23;70.71;99534.59;7630537;32;40004;-73
2022/07/30 10:33:06;;;;;;;11.57;7.07;;;;;;;22.20;71.30;99530.59;7617208;32;37854;-76
2022/07/30 10:37:24;;;;;;;9.77;6.35;;;;;;;22.46;70.22;99546.75;7631123;32;37013;-73
2022/07/30 10:42:38;;;;;;;11.20;6.93;;;;;;;22.60;69.06;99554.62;7617101;32;40138;-74
2022/07/30 10:47:05;;;;;;;9.35;5.65;;;;;;;22.71;69.06;99554.88;7520569;33;39803;-76
2022/07/30 10:51:41;;;;;;;10.15;6.15;;;;;;;22.67;68.71;99548.44;7591093;32;37695;-73
2022/07/30 10:56:18;;;;;;;10.70;5.95;;;;;;;22.70;68.31;99544.97;7630537;32;38337;-73
2022/07/30 11:00:43;;;;;;;8.80;6.05;;;;;;;22.41;68.66;99552.56;7630130;32;40041;-75
2022/07/30 11:05:19;;;;;;;8.80;5.37;;;;;;;22.13;69.59;99535.94;7631325;32;39758;-77
2022/07/30 11:09:57;;;;;;;8.70;5.28;;;;;;;22.49;69.13;99534.09;7633118;32;38198;-77
2022/07/30 11:14:44;;;;;;;9.98;4.50;;;;;;;22.26;69.90;99533.88;7633570;32;37936;-76
2022/07/30 11:19:03;;;;;;;7.95;4.45;;;;;;;22.03;70.64;99520.59;7621732;32;39411;-75
2022/07/30 11:23:40;;;;;;;7.60;4.15;;;;;;;21.98;71.12;99518.09;7632484;32;40281;-75
2022/07/30 11:27:56;;;;;;;9.23;4.57;;;;;;;22.48;69.05;99508.31;7633213;32;37725;-75
2022/07/30 11:32:31;;;;;;;7.35;3.78;;;;;;;22.74;67.94;99508.91;7632865;32;37134;-76
2022/07/30 11:37:07;;;;;;;5.65;3.60;;;;;;;23.14;68.20;99483.66;7632996;32;39576;-77
2022/07/30 11:41:37;;;;;;;5.72;3.22;;;;;;;22.63;68.86;99484.47;7632550;32;40043;-73
2022/07/30 11:46:22;;;;;;;5.40;3.45;;;;;;;23.25;67.38;99483.91;7632452;32;37672;-73
2022/07/30 11:50:46;;;;;;;6.30;3.78;;;;;;;23.28;66.46;99471.22;7606977;32;37016;-76
2022/07/30 11:55:04;;;;;;;4.65;3.03;;;;;;;23.19;68.54;99458.34;7619548;32;39333;-74
2022/07/30 11:59:20;;;;;;;3.60;2.55;;;;;;;23.51;67.12;99463.78;7632075;32;40891;-74
2022/07/30 12:03:39;;;;;;;3.12;2.08;;;;;;;23.56;65.77;99449.56;7632930;32;38678;-77
2022/07/30 12:07:58;;;;;;;4.00;2.45;;;;;;;23.47;65.68;99440.62;7619093;32;35070;-76
2022/07/30 12:12:24;;;;;;;2.62;2.00;;;;;;;23.84;66.91;99442.16;7619709;32;39101;-76
2022/07/30 12:16:47;;;;;;;1.30;1.20;;;;;;;24.16;65.70;99431.56;7631874;32;40591;-76
2022/07/30 12:21:07;;;;;;;;;;;;;;;24.56;64.05;99421.91;7620313;32;38838;-75
2022/07/30 12:25:23;;;;;;;1.30;1.20;;;;;;;24.93;62.58;99407.25;7631968;32;35170;-75
2022/07/30 12:29:39;;;;;;;1.40;1.20;;;;;;;25.18;60.07;99396.44;7632145;32;39277;-78
2022/07/30 12:33:56;;;;;;;1.55;1.20;;;;;;;25.43;61.47;99380.00;7619161;32;40639;-77
2022/07/30 12:38:15;;;;;;;1.65;1.10;;;;;;;25.58;57.88;99386.53;7632558;32;38687;-72
2022/07/30 12:42:31;;;;;;;1.70;1.40;;;;;;;24.41;60.75;99400.53;7619015;32;37882;-72
2022/07/30 12:46:48;;;;;;;1.52;1.33;;;;;;;24.71;60.27;99406.16;7619166;32;39965;-82
2022/07/30 12:51:09;;;;;;;1.27;1.17;;;;;;;26.01;58.81;99402.94;7618952;32;39896;-75
2022/07/30 12:55:32;;;;;;;2.08;1.45;;;;;;;26.02;55.15;99396.12;7617162;32;37887;-79
2022/07/30 13:00:00;;;;;;;3.12;1.70;;;;;;;26.51;57.68;99402.47;7632775;32;37072;-71
2022/07/30 13:04:16;;;;;;;3.80;1.40;;;;;;;26.17;55.13;99406.25;7620416;32;39140;-74
2022/07/30 13:08:50;;;;;;;1.40;1.30;;;;;;;25.21;56.09;99412.38;7632551;32;39931;-74
2022/07/30 13:13:06;;;;;;;2.65;1.30;;;;;;;24.67;57.02;99410.91;7632463;32;37934;-73
2022/07/30 13:17:22;;;;;;;1.77;0.98;;;;;;;24.86;58.11;99410.75;7605650;32;37785;-73
2022/07/30 13:21:40;;;;;;;1.83;1.40;;;;;;;24.42;58.56;99407.69;7605145;32;39260;-74
2022/07/30 13:26:06;;;;;;;2.67;1.30;;;;;;;24.59;59.17;99398.81;7605578;32;41135;-73
2022/07/30 13:30:22;;;;;;;3.55;1.20;;;;;;;24.29;58.61;99390.41;7604610;32;37909;-73
2022/07/30 13:34:40;;;;;;;1.85;1.37;;;;;;;24.92;57.69;99394.50;7604504;32;37835;-72
2022/07/30 13:38:56;;;;;;;2.35;1.40;;;;;;;24.24;59.29;99421.34;7604621;32;39544;-73
2022/07/30 13:43:12;;;;;;;1.55;1.37;;;;;;;24.86;57.55;99407.19;7604903;32;39984;-73
2022/07/30 13:47:28;;;;;;;2.62;1.52;;;;;;;24.93;57.76;99410.84;7604228;32;38732;-74
2022/07/30 13:51:44;;;;;;;1.80;1.40;;;;;;;25.85;56.00;99401.16;7604040;32;37870;-73
2022/07/30 13:56:02;;;;;;;1.05;0.98;;;;;;;25.77;55.60;99398.69;7603789;32;39464;-73
2022/07/30 14:00:18;;;;;;;2.22;1.40;;;;;;;25.42;55.73;99372.00;7603831;32;40781;-72
2022/07/30 14:04:34;;;;;;;1.40;1.20;;;;;;;25.27;56.15;99359.91;7604234;32;37575;-72
2022/07/30 14:08:50;;;;;;;2.40;1.55;;;;;;;24.93;56.12;99368.22;7603137;32;37281;-72
2022/07/30 14:13:08;;;;;;;1.90;1.30;;;;;;;24.06;58.50;99373.72;7602925;32;38121;-73
2022/07/30 14:17:24;;;;;;;1.50;1.40;;;;;;;24.16;57.59;99378.66;7598843;32;40475;-73
2022/07/30 14:21:40;;;;;;;1.40;1.30;;;;;;;24.17;58.17;99375.50;7625766;32;38293;-71
2022/07/30 14:25:57;;;;;;;2.10;1.70;;;;;;;23.71;59.41;99385.81;7625709;32;37517;-73
2022/07/30 14:30:13;;;;;;;3.67;1.90;;;;;;;23.37;60.31;99391.16;7627963;32;39979;-74
2022/07/30 14:34:29;;;;;;;2.25;1.90;;;;;;;23.95;58.85;99395.81;7629968;32;40891;-73
2022/07/30 14:38:47;;;;;;;2.40;1.75;;;;;;;23.88;60.56;99393.72;7626429;32;38529;-70
2022/07/30 14:43:06;;;;;;;2.03;1.83;;;;;;;24.32;56.82;99389.66;7629337;32;37106;-74
2022/07/30 14:47:22;;;;;;;4.00;1.67;;;;;;;25.12;57.49;99390.38;7629648;32;39819;-74
2022/07/30 14:51:39;;;;;;;1.40;1.30;;;;;;;25.90;54.05;99388.03;7629384;32;40765;-73
2022/07/30 14:55:56;;;;;;;2.85;1.70;;;;;;;25.91;52.72;99392.44;7629184;32;37945;-73
2022/07/30 15:00:13;;;;;;;1.75;1.30;;;;;;;25.72;51.19;99388.66;7629240;32;37854;-75
2022/07/30 15:04:32;;;;;;;1.33;1.20;;;;;;;25.55;52.08;99380.91;7629241;32;39821;-74
2022/07/30 15:08:48;;;;;;;1.37;1.27;;;;;;;25.33;52.10;99380.69;7628812;32;39953;-74
2022/07/30 15:13:05;;;;;;;1.85;1.37;;;;;;;25.60;52.53;99377.78;7629142;32;39207;-73
2022/07/30 15:17:22;;;;;;;3.60;1.20;;;;;;;25.20;52.10;99377.31;7629183;32;37585;-74
2022/07/30 15:21:38;;;;;;;1.48;1.30;;;;;;;25.35;52.89;99383.09;7628410;32;39856;-75
2022/07/30 15:25:54;;;;;;;4.20;1.40;;;;;;;25.33;51.78;99386.25;7629315;32;39951;-75
2022/07/30 15:30:11;;;;;;;1.98;1.30;;;;;;;25.50;52.36;99379.28;7628021;32;37971;-75
2022/07/30 15:34:32;;;;;;;1.35;1.25;;;;;;;26.44;51.23;99383.69;7627351;32;37757;-75
2022/07/30 15:38:49;;;;;;;1.85;1.27;;;;;;;26.72;48.32;99376.69;7628733;32;38956;-76
2022/07/30 15:43:06;;;;;;;2.15;1.12;;;;;;;27.10;47.13;99371.69;7628511;32;40196;-75
2022/07/30 15:47:27;;;;;;;1.27;1.17;;;;;;;26.90;47.73;99369.19;7628235;32;37808;-74
2022/07/30 15:51:47;;;;;;;1.40;1.30;;;;;;;27.30;47.32;99369.34;7629435;32;36067;-74
2022/07/30 15:56:03;;;;;;;1.98;1.17;;;;;;;27.50;46.15;99372.59;7631990;32;39493;-74
2022/07/30 16:00:19;;;;;;;1.33;1.23;;;;;;;27.25;45.90;99378.09;7618470;32;40806;-75
2022/07/30 16:04:35;;;;;;;1.87;1.20;;;;;;;27.09;46.51;99375.66;7633261;32;38648;-73
2022/07/30 16:08:52;;;;;;;1.55;1.30;;;;;;;27.25;45.75;99381.72;7631373;32;37016;-77
2022/07/30 16:13:08;;;;;;;1.70;1.10;;;;;;;26.66;47.10;99389.44;7633231;32;39201;-79
2022/07/30 16:17:25;;;;;;;2.20;1.15;;;;;;;26.22;48.75;99393.91;7619437;32;39730;-78
2022/07/30 16:21:41;;;;;;;5.10;2.12;;;;;;;26.60;48.66;99406.53;7632478;32;37872;-82
2022/07/30 16:25:57;;;;;;;2.03;1.40;;;;;;;26.33;48.91;99411.53;7619015;32;37774;-75
2022/07/30 16:30:13;;;;;;;3.87;1.48;;;;;;;26.02;48.76;99415.69;7632493;32;39332;-74
2022/07/30 16:34:29;;;;;;;3.25;1.20;;;;;;;25.85;48.61;99411.50;7632619;32;40899;-75
2022/07/30 16:38:45;;;;;;;1.87;1.30;;;;;;;25.55;49.52;99415.22;7632081;32;39548;-79
2022/07/30 16:43:01;;;;;;;1.40;1.30;;;;;;;25.74;49.20;99405.81;7632749;32;37329;-78
2022/07/30 16:47:18;;;;;;;1.60;1.50;;;;;;;25.72;49.08;99408.22;7632180;32;40806;-77
2022/07/30 16:51:34;;;;;;;4.12;1.42;;;;;;;25.63;49.20;99407.69;7632322;32;40129;-78
2022/07/30 16:55:50;;;;;;;3.50;1.40;;;;;;;25.63;48.96;99407.69;7632527;32;38662;-77
2022/07/30 17:00:08;;;;;;;1.50;1.40;;;;;;;25.17;50.63;99410.75;7631878;32;37121;-79
2022/07/30 17:04:24;;;;;;;1.67;1.50;;;;;;;25.41;49.71;99409.47;7631912;32;40042;-79
2022/07/30 17:08:40;;;;;;;1.95;1.33;;;;;;;25.39;49.35;99412.66;7632233;32;40596;-78
2022/07/30 17:12:56;;;;;;;3.28;1.75;;;;;;;25.16;50.30;99421.09;7632216;32;37758;-78
2022/07/30 17:17:13;;;;;;;2.40;1.73;;;;;;;25.07;50.29;99418.59;7617489;32;37478;-78
2022/07/30 17:21:29;;;;;;;1.42;1.33;;;;;;;25.04;50.59;99418.56;7606191;32;40200;-78
2022/07/30 17:25:45;;;;;;;8.98;1.70;;;;;;;25.10;51.16;99409.47;7606174;32;40007;-79
2022/07/30 17:30:04;;;;;;;2.72;1.85;;;;;;;25.02;50.60;99401.41;7606064;32;38691;-78
2022/07/30 17:34:21;;;;;;;1.77;1.65;;;;;;;24.65;51.64;99394.53;7606050;32;37110;-76
2022/07/30 17:38:37;;;;;;;4.05;1.67;;;;;;;24.45;51.66;99393.03;7605940;32;39478;-76
2022/07/30 17:42:53;;;;;;;2.72;1.77;;;;;;;24.55;51.78;99392.41;7605783;32;40775;-77
2022/07/30 17:47:09;;;;;;;2.55;1.73;;;;;;;24.46;52.06;99391.84;7624010;32;38731;-76
2022/07/30 17:51:34;;;;;;;3.53;1.85;;;;;;;23.90;53.93;99390.56;7631821;32;37783;-75
2022/07/30 17:55:50;;;;;;;3.83;2.17;;;;;;;23.78;55.07;99397.91;7631862;32;39165;-76
2022/07/30 18:00:13;;;;;;;3.07;2.47;;;;;;;23.46;55.37;99391.75;7631178;32;39930;-77
2022/07/30 18:04:29;;;;;;;3.12;2.33;;;;;;;23.27;55.46;99377.84;7622973;32;270080;-77
2022/07/30 18:08:45;;;;;;;2.97;2.20;;;;;;;23.31;55.29;99378.72;7631517;32;38086;-77
2022/07/30 18:13:01;;;;;;;3.33;2.30;;;;;;;22.98;55.89;99375.28;7630725;32;39397;-76
2022/07/30 18:17:37;;;;;;;5.40;2.30;;;;;;;23.11;55.95;99366.81;7630541;32;41328;-76
2022/07/30 18:21:54;;;;;;;3.85;2.53;;;;;;;22.65;56.88;99361.88;7631037;32;39221;-77
2022/07/30 18:26:10;;;;;;;4.05;2.70;;;;;;;22.52;57.76;99368.72;7631069;32;37742;-77
2022/07/30 18:30:27;;;;;;;4.15;2.65;;;;;;;22.29;58.95;99386.06;7630998;32;40057;-75
2022/07/30 18:34:44;;;;;;;2.85;2.37;;;;;;;22.59;58.33;99374.44;7617750;32;39813;-77
2022/07/30 18:39:01;;;;;;;3.62;2.47;;;;;;;22.61;58.88;99385.97;7630631;32;38759;-74
2022/07/30 18:43:17;;;;;;;5.10;3.03;;;;;;;22.54;58.98;99388.59;7630484;32;37143;-78
2022/07/30 18:47:34;;;;;;;5.03;2.90;;;;;;;22.76;58.46;99382.34;7630911;32;39289;-76
2022/07/30 18:51:52;;;;;;;3.92;2.60;;;;;;;22.40;59.00;99389.88;7631141;32;39911;-83
2022/07/30 18:56:08;;;;;;;3.50;2.78;;;;;;;22.43;58.98;99397.50;7630070;32;38007;-74
2022/07/30 19:00:25;;;;;;;4.37;3.17;;;;;;;22.57;57.84;99397.00;7630596;32;36902;-78
2022/07/30 19:04:54;;;;;;;3.60;2.60;;;;;;;22.45;57.76;99403.47;7630546;32;40471;-78
2022/07/30 19:09:11;;;;;;;4.30;2.92;;;;;;;22.29;58.17;99406.28;7630035;32;40646;-79
2022/07/30 19:13:33;;;;;;;4.82;3.05;;;;;;;22.18;58.12;99410.75;7617981;32;37713;-78
2022/07/30 19:17:50;;;;;;;4.80;3.30;;;;;;;22.12;58.84;99418.53;7615723;32;37187;-80
2022/07/30 19:22:07;;;;;;;6.68;3.20;;;;;;;22.29;58.36;99422.16;7630228;32;39912;-79
2022/07/30 19:26:24;;;;;;;3.87;2.70;;;;;;;22.23;58.09;99426.31;7631508;32;40959;-77
2022/07/30 19:30:40;;;;;;;6.37;3.40;;;;;;;22.29;57.26;99438.81;7633512;32;39976;-76
2022/07/30 19:34:56;;;;;;;5.37;3.08;;;;;;;22.18;57.49;99443.25;7633650;32;37357;-77
2022/07/30 19:39:14;;;;;;;3.92;2.90;;;;;;;22.22;57.21;99449.72;7633375;32;39918;-75
2022/07/30 19:43:37;;;;;;;5.25;3.03;;;;;;;22.44;57.02;99457.44;7633634;32;39664;-76
2022/07/30 19:47:54;;;;;;;4.30;3.08;;;;;;;22.64;56.19;99449.16;7633332;32;37920;-77
2022/07/30 19:52:10;;;;;;;5.57;3.40;;;;;;;22.63;56.49;99458.66;7633134;32;37045;-77
2022/07/30 19:56:40;;;;;;;4.78;3.05;;;;;;;22.42;57.27;99459.78;7633118;32;39648;-76
2022/07/30 20:01:01;;;;;;;7.68;3.35;;;;;;;22.43;56.95;99458.59;7632590;32;39859;-77
2022/07/30 20:05:23;;;;;;;9.43;3.60;;;;;;;22.38;57.05;99458.84;7632304;32;38038;-75
2022/07/30 20:09:45;;;;;;;6.40;4.00;;;;;;;22.53;56.51;99453.66;7633010;32;37148;-76
2022/07/30 20:14:04;;;;;;;5.53;3.42;;;;;;;22.46;56.66;99449.53;7633004;32;40165;-74
2022/07/30 20:18:21;;;;;;;4.72;3.30;;;;;;;22.33;57.04;99436.91;7632625;32;39686;-76
2022/07/30 20:22:44;;;;;;;7.55;3.78;;;;;;;22.58;56.31;99447.84;7632889;32;38701;-76